Owensboro, KY

10:21 PM CDT on August 03, 2015 (GMT -0500)
Owensboro-Daviess County | Change Station
CLOSE
Current Station
Airport
Location: Owensboro,
Elevation: 407 ft
Nearby Weather Stations

Elev 407 ft 37.74 °N, 87.17 °W | Updated 25 minutes ago

Clear
Clear
80 °F
Feels Like 80 °F
N
0
Wind Variable Wind from North

Today
High -- | Low -- °F
--% Chance of Precip.
Yesterday
High -- | Low -- °F
Precip. -- in
5:53 AM 7:55 PM
Waning Gibbous, 81% visible
Pressure 29.91 in
Visibility 10.0 miles
Clouds Clear
Dew Point 74 °F
Humidity 82%
Rainfall 0.00 in
Snow Depth Not available.
UV 0 out of 12
Pollen 6.10 out of 12
Air Quality Not available.
Flu Activity Not available.
METAR KOWB 040256Z 00000KT 10SM CLR 27/23 A2992 RMK AO2 53016 T02660233 SLP126

More Conditions Fewer Conditions

Pressure 29.91 in
Visibility 10.0 miles
Clouds Clear
Dew Point 74 °F
Humidity 82%
Rainfall 0.00 in
Snow Depth Not available.
UV 0 out of 12
Pollen 6.10 out of 12
Air Quality Not available.
Flu Activity Not available.
METAR KOWB 040256Z 00000KT 10SM CLR 27/23 A2992 RMK AO2 53016 T02660233 SLP126

More Conditions Fewer Conditions

10-Day Weather Forecast

Almanac

Astronomy

Aug. 03, 2015 Rise Set
Actual Time 5:53 AM CDT 7:55 PM CDT
Civil Twilight 5:24 AM CDT 8:24 PM CDT
Nautical Twilight 4:49 AM CDT 8:59 PM CDT
Astronomical Twilight 4:11 AM CDT 9:37 PM CDT
Moon 10:05 PM CDT (8/3) 9:34 AM CDT (8/3)
Length of Visible Light 14h 59m
Length of Day
14h 01m
Tomorrow will be 1m 53s shorter.
Waning Gibbous, 81% of the Moon is Illuminated
Today
Waning Gibbous
Aug 6
Last Quarter
Aug 14
New
Aug 22
First Quarter
Aug 29
Full

Today's Extremes

State Highs State Lows

Community

WunderPhotos

Upload Photos

1,843,838 photos uploaded!

Nearby

Snow Depth

Station Depth Elevation
No new snow has been reported.

Earthquake Activity

City Distance Mag. Time & Date
No recent earthquake activity has been reported nearby.
Minimum magnitude displayed is 2.5.

Coastal Water Temperatures

Place Temperature
No Stations Reporting

Nearby Weather Stations